Time;durP1;ratioP1;P1;durP2;ratioP2;P2;SDS_P1;SDS_P2;PMS_P1;PMS_P2;Temp;Humidity;BMP_temperature;BMP_pressure;BME280_temperature;BME280_humidity;BME280_pressure;Samples;Min_cycle;Max_cycle;Signal;HPM_P1;HPM_P2
2020/12/17 00:01:06;;;;;;;4.05;1.55;;;20.70;45.50;;;;;;5031779;28;20040;-76
2020/12/17 00:03:32;;;;;;;5.80;2.05;;;20.70;45.50;;;;;;5055133;28;20029;-74
2020/12/17 00:05:57;;;;;;;2.72;0.95;;;20.70;45.50;;;;;;5066652;28;20032;-74
2020/12/17 00:08:23;;;;;;;13.88;1.92;;;20.70;45.50;;;;;;5049263;28;20152;-76
2020/12/17 00:10:49;;;;;;;3.92;1.33;;;20.70;45.50;;;;;;5022662;28;20049;-75
2020/12/17 00:13:14;;;;;;;1.77;1.25;;;20.70;45.50;;;;;;5051747;28;20032;-77
2020/12/17 00:15:40;;;;;;;3.38;1.90;;;20.70;45.50;;;;;;5032983;28;20038;-76
2020/12/17 00:18:06;;;;;;;3.80;2.13;;;20.70;45.60;;;;;;5044229;28;20032;-76
2020/12/17 00:20:31;;;;;;;3.55;2.00;;;20.70;45.60;;;;;;5007716;28;20025;-76
2020/12/17 00:22:57;;;;;;;2.97;2.10;;;20.70;45.60;;;;;;5047255;28;20053;-76
2020/12/17 00:25:25;;;;;;;1.88;1.25;;;20.60;45.50;;;;;;5034507;28;20116;-75
2020/12/17 00:27:51;;;;;;;4.65;2.35;;;20.60;45.60;;;;;;5020789;28;20016;-76
2020/12/17 00:30:17;;;;;;;2.75;2.30;;;20.60;45.60;;;;;;5069214;28;20120;-75
2020/12/17 00:32:45;;;;;;;2.97;2.45;;;20.60;45.60;;;;;;5038309;28;20086;-74
2020/12/17 00:35:14;;;;;;;6.25;2.50;;;20.60;45.70;;;;;;5041079;28;20024;-73
2020/12/17 00:37:40;;;;;;;4.78;2.35;;;20.60;45.70;;;;;;5026819;28;20048;-75
2020/12/17 00:40:07;;;;;;;3.63;1.65;;;20.60;45.70;;;;;;5035197;28;20032;-75
2020/12/17 00:42:33;;;;;;;1.95;1.75;;;20.60;45.80;;;;;;5056885;28;20021;-76
2020/12/17 00:44:59;;;;;;;1.80;0.77;;;20.60;45.80;;;;;;5036527;28;20047;-76
2020/12/17 00:47:34;;;;;;;1.85;1.48;;;20.60;45.80;;;;;;5030588;28;20017;-75
2020/12/17 00:50:00;;;;;;;1.92;1.38;;;20.60;45.80;;;;;;5016753;28;20404;-75
2020/12/17 00:52:25;;;;;;;1.95;1.75;;;20.50;45.80;;;;;;5034045;28;20040;-75
2020/12/17 00:54:51;;;;;;;2.97;2.15;;;20.50;45.80;;;;;;5048129;28;20124;-76
2020/12/17 00:57:17;;;;;;;2.95;1.92;;;20.50;45.90;;;;;;5031066;28;20021;-76
2020/12/17 00:59:42;;;;;;;3.17;1.95;;;20.50;45.90;;;;;;5041303;28;22200;-75
2020/12/17 01:02:08;;;;;;;3.88;2.05;;;20.50;46.00;;;;;;5037044;28;20040;-76
2020/12/17 01:04:34;;;;;;;2.65;1.48;;;20.50;45.90;;;;;;5036240;28;20051;-76
2020/12/17 01:06:59;;;;;;;2.47;1.92;;;20.50;46.00;;;;;;5028656;28;20040;-75
2020/12/17 01:09:25;;;;;;;5.95;2.40;;;20.50;46.00;;;;;;5028622;28;20052;-75
2020/12/17 01:11:50;;;;;;;4.20;2.25;;;20.50;46.00;;;;;;5071376;28;20043;-75
2020/12/17 01:14:16;;;;;;;1.75;1.65;;;20.50;46.00;;;;;;5025805;28;20024;-74
2020/12/17 01:16:46;;;;;;;2.72;2.03;;;20.50;46.00;;;;;;5031862;28;20029;-74
2020/12/17 01:19:12;;;;;;;3.33;2.22;;;20.50;46.00;;;;;;5047909;28;20025;-74
2020/12/17 01:21:41;;;;;;;3.47;1.98;;;20.50;46.00;;;;;;5036800;28;20025;-74
2020/12/17 01:24:06;;;;;;;6.03;2.42;;;20.50;46.00;;;;;;5049225;28;20111;-74
2020/12/17 01:26:32;;;;;;;3.97;2.10;;;20.50;46.00;;;;;;5025525;28;20112;-74
2020/12/17 01:28:57;;;;;;;2.95;1.42;;;20.50;46.60;;;;;;5010953;28;20036;-75
2020/12/17 01:31:23;;;;;;;0.40;0.40;;;20.50;46.10;;;;;;5032626;28;20049;-75
2020/12/17 01:33:49;;;;;;;2.35;1.25;;;20.50;46.00;;;;;;5066126;28;20029;-76
2020/12/17 01:36:14;;;;;;;3.55;1.38;;;20.50;46.00;;;;;;5020306;28;20040;-76
2020/12/17 01:39:14;;;;;;;1.27;0.70;;;20.50;46.00;;;;;;5033761;28;20021;-76
2020/12/17 01:41:39;;;;;;;4.55;2.00;;;20.50;46.00;;;;;;5054035;28;20033;-76
2020/12/17 01:44:05;;;;;;;0.43;0.43;;;20.50;46.00;;;;;;5034052;28;20162;-76
2020/12/17 01:46:30;;;;;;;2.30;1.23;;;20.40;46.00;;;;;;5042735;28;20044;-76
2020/12/17 01:48:56;;;;;;;8.98;2.38;;;20.40;46.00;;;;;;5014776;28;20069;-76
2020/12/17 01:51:22;;;;;;;1.90;0.68;;;20.40;46.00;;;;;;5047798;28;20025;-75
2020/12/17 01:53:47;;;;;;;1.90;1.65;;;20.40;46.10;;;;;;5028237;28;20527;-76
2020/12/17 01:56:19;;;;;;;1.85;1.05;;;20.40;46.10;;;;;;5034287;28;20508;-76
2020/12/17 01:58:47;;;;;;;0.20;0.20;;;20.40;46.10;;;;;;5010912;28;20025;-75
2020/12/17 02:01:13;;;;;;;3.33;2.20;;;20.40;46.10;;;;;;5026467;28;20016;-76
2020/12/17 02:03:39;;;;;;;2.63;1.98;;;20.40;46.10;;;;;;5052648;28;20028;-75
2020/12/17 02:06:05;;;;;;;3.20;1.85;;;20.40;46.10;;;;;;5013554;28;20052;-76
2020/12/17 02:08:37;;;;;;;1.40;0.98;;;20.40;46.10;;;;;;5044114;28;20100;-76
2020/12/17 02:11:02;;;;;;;2.67;1.95;;;20.40;46.10;;;;;;5011771;28;20041;-76
2020/12/17 02:13:32;;;;;;;4.63;2.10;;;20.30;46.10;;;;;;5062011;28;20042;-74
2020/12/17 02:15:59;;;;;;;2.83;1.73;;;20.40;46.20;;;;;;5024804;28;20526;-75
2020/12/17 02:18:25;;;;;;;2.13;1.25;;;20.40;46.20;;;;;;5033345;28;20511;-74
2020/12/17 02:20:50;;;;;;;5.20;2.05;;;20.30;46.20;;;;;;5065647;28;20024;-74
2020/12/17 02:23:16;;;;;;;1.25;0.30;;;20.40;46.30;;;;;;5027257;28;20112;-75
2020/12/17 02:25:41;;;;;;;6.15;1.30;;;20.30;46.90;;;;;;5039692;28;20044;-75
2020/12/17 02:28:07;;;;;;;4.35;1.88;;;20.40;46.30;;;;;;5070107;28;20028;-76
2020/12/17 02:30:33;;;;;;;3.38;1.70;;;20.30;46.30;;;;;;5053161;28;20032;-74
2020/12/17 02:32:58;;;;;;;2.13;1.65;;;20.40;47.00;;;;;;5047318;28;20049;-77
2020/12/17 02:35:24;;;;;;;4.60;1.42;;;20.40;46.40;;;;;;5042969;28;20025;-78
2020/12/17 02:37:49;;;;;;;2.35;1.50;;;20.30;46.40;;;;;;5057600;28;20035;-76
2020/12/17 02:40:15;;;;;;;3.45;1.80;;;20.30;46.40;;;;;;5035475;28;20029;-78
2020/12/17 02:42:40;;;;;;;4.47;1.65;;;20.30;46.40;;;;;;5036956;28;20497;-79
2020/12/17 02:45:06;;;;;;;2.78;1.83;;;20.30;46.40;;;;;;5026410;28;20594;-78
2020/12/17 02:47:31;;;;;;;2.78;1.73;;;20.30;46.40;;;;;;5041527;28;20403;-78
2020/12/17 02:49:57;;;;;;;5.47;1.92;;;20.30;46.50;;;;;;5035739;28;20144;-79
2020/12/17 02:52:22;;;;;;;1.35;1.25;;;20.30;46.50;;;;;;5034446;28;20048;-77
2020/12/17 02:54:48;;;;;;;2.88;1.70;;;20.30;46.60;;;;;;5041708;28;20044;-77
2020/12/17 02:57:13;;;;;;;2.20;1.30;;;20.30;46.60;;;;;;5018090;28;20501;-77
2020/12/17 02:59:39;;;;;;;2.85;1.63;;;20.30;46.60;;;;;;5030025;28;20449;-77
2020/12/17 03:02:04;;;;;;;3.85;1.80;;;20.30;46.60;;;;;;5038068;28;20017;-77
2020/12/17 03:04:30;;;;;;;3.13;1.67;;;20.30;46.70;;;;;;5040678;28;20075;-77
2020/12/17 03:06:55;;;;;;;8.35;2.15;;;20.30;46.70;;;;;;5048546;28;20025;-76
2020/12/17 03:09:21;;;;;;;3.17;1.80;;;20.30;46.70;;;;;;5047270;28;20121;-76
2020/12/17 03:11:46;;;;;;;3.38;2.00;;;20.30;46.70;;;;;;5065556;28;20082;-76
2020/12/17 03:14:12;;;;;;;3.25;1.52;;;20.30;46.70;;;;;;5048028;28;20028;-76
2020/12/17 03:16:59;;;;;;;2.55;1.55;;;20.30;46.70;;;;;;5025926;28;20059;-76
2020/12/17 03:19:25;;;;;;;4.38;1.60;;;20.40;46.80;;;;;;5072500;28;20032;-77
2020/12/17 03:21:51;;;;;;;2.03;1.30;;;20.40;46.80;;;;;;5044911;28;20036;-75
2020/12/17 03:24:17;;;;;;;3.33;1.88;;;20.40;46.70;;;;;;5038270;28;20033;-75
2020/12/17 03:26:55;;;;;;;3.42;1.88;;;20.40;46.80;;;;;;5016308;28;20495;-77
2020/12/17 03:29:20;;;;;;;3.38;1.35;;;20.40;46.80;;;;;;5043618;28;20051;-78
2020/12/17 03:32:01;;;;;;;4.55;1.60;;;20.40;46.80;;;;;;5032637;28;20041;-78
2020/12/17 03:34:27;;;;;;;2.25;1.45;;;20.30;47.40;;;;;;5032123;28;20035;-77
2020/12/17 03:36:52;;;;;;;3.05;1.55;;;20.30;46.80;;;;;;5056456;28;20029;-78
2020/12/17 03:39:18;;;;;;;4.32;1.30;;;20.30;46.90;;;;;;5054672;28;20029;-77
2020/12/17 03:41:43;;;;;;;3.17;1.75;;;20.30;47.00;;;;;;5046488;28;20028;-77
2020/12/17 03:44:09;;;;;;;0.80;0.80;;;20.30;47.00;;;;;;5041722;28;20030;-78
2020/12/17 03:46:34;;;;;;;0.40;0.40;;;20.30;47.00;;;;;;5034208;28;20034;-78
2020/12/17 03:49:00;;;;;;;1.92;1.08;;;20.20;47.00;;;;;;5031290;28;20033;-78
2020/12/17 03:51:25;;;;;;;5.32;1.80;;;20.30;47.10;;;;;;5041043;28;20043;-79
2020/12/17 03:53:51;;;;;;;1.95;1.70;;;20.20;47.70;;;;;;5061122;28;20033;-79
2020/12/17 03:56:16;;;;;;;2.38;1.42;;;20.20;47.20;;;;;;5034438;28;20032;-79
2020/12/17 03:58:42;;;;;;;5.72;1.88;;;20.10;47.20;;;;;;5036832;28;20044;-78
2020/12/17 04:01:08;;;;;;;0.73;0.45;;;20.20;47.30;;;;;;5026971;28;20516;-79
2020/12/17 04:03:33;;;;;;;1.35;0.82;;;20.20;47.30;;;;;;5050401;28;20385;-78
2020/12/17 04:05:59;;;;;;;2.38;1.17;;;20.10;47.90;;;;;;5060110;28;20432;-78
2020/12/17 04:08:24;;;;;;;0.82;0.60;;;20.10;47.40;;;;;;5034129;28;20040;-78
2020/12/17 04:10:50;;;;;;;1.77;1.48;;;20.10;47.30;;;;;;5041680;28;20060;-78
2020/12/17 04:13:15;;;;;;;2.47;1.40;;;20.10;47.40;;;;;;5046778;28;20136;-78
2020/12/17 04:15:41;;;;;;;1.13;1.02;;;20.10;47.40;;;;;;5058681;28;20028;-78
2020/12/17 04:18:06;;;;;;;2.67;1.40;;;20.10;47.30;;;;;;5062256;28;20024;-78
2020/12/17 04:20:32;;;;;;;0.63;0.20;;;20.10;47.30;;;;;;5042723;28;20484;-78
2020/12/17 04:22:57;;;;;;;2.67;0.90;;;20.10;47.30;;;;;;5038109;28;20037;-78
2020/12/17 04:25:23;;;;;;;2.65;0.93;;;20.10;47.40;;;;;;5054507;28;20025;-78
2020/12/17 04:27:49;;;;;;;1.85;1.20;;;20.00;47.30;;;;;;5048051;28;20032;-76
2020/12/17 04:30:15;;;;;;;1.42;1.33;;;20.10;47.40;;;;;;5040448;28;20116;-77
2020/12/17 04:32:40;;;;;;;2.83;1.15;;;20.10;47.30;;;;;;5050605;28;20172;-77
2020/12/17 04:35:06;;;;;;;1.70;1.40;;;20.10;47.40;;;;;;5041908;28;20056;-77
2020/12/17 04:37:31;;;;;;;1.13;1.02;;;20.10;47.40;;;;;;5061535;28;20434;-77
2020/12/17 04:39:57;;;;;;;1.50;1.33;;;20.00;47.30;;;;;;5030752;28;20025;-77
2020/12/17 04:42:22;;;;;;;2.25;1.00;;;20.10;47.40;;;;;;5034302;28;20055;-77
2020/12/17 04:44:48;;;;;;;1.27;1.10;;;20.00;47.40;;;;;;5031938;28;20054;-77
2020/12/17 04:47:20;;;;;;;5.53;1.30;;;20.00;47.40;;;;;;5036882;28;20044;-76
2020/12/17 04:49:50;;;;;;;1.30;1.10;;;20.00;47.40;;;;;;5016321;28;20043;-77
2020/12/17 04:52:16;;;;;;;3.72;1.30;;;20.00;47.40;;;;;;5045235;28;20424;-77
2020/12/17 04:54:41;;;;;;;1.60;1.15;;;20.10;47.40;;;;;;5045509;28;20029;-77
2020/12/17 04:57:11;;;;;;;1.48;1.13;;;20.00;47.40;;;;;;5043962;28;20028;-76
2020/12/17 04:59:57;;;;;;;1.83;1.40;;;20.10;47.40;;;;;;5018996;28;20032;-79
2020/12/17 05:02:23;;;;;;;0.25;0.25;;;20.10;47.40;;;;;;5030429;28;20095;-77
2020/12/17 05:04:50;;;;;;;0.35;0.30;;;20.10;47.50;;;;;;5019285;28;20037;-77
2020/12/17 05:07:21;;;;;;;0.25;0.20;;;20.10;47.40;;;;;;5024053;28;20057;-77
2020/12/17 05:09:47;;;;;;;0.30;0.30;;;20.20;47.40;;;;;;5034934;28;20048;-76
2020/12/17 05:12:12;;;;;;;0.28;0.22;;;20.20;47.40;;;;;;5032826;28;20067;-76
2020/12/17 05:14:38;;;;;;;0.30;0.30;;;20.20;48.00;;;;;;5017817;28;20017;-78
2020/12/17 05:17:05;;;;;;;0.30;0.30;;;20.30;47.40;;;;;;5033975;28;20032;-77
2020/12/17 05:19:30;;;;;;;0.40;0.30;;;20.30;47.40;;;;;;5016461;28;20033;-77
2020/12/17 05:21:57;;;;;;;0.45;0.20;;;20.30;47.20;;;;;;5020242;28;20413;-77
2020/12/17 05:24:23;;;;;;;0.30;0.30;;;20.30;47.10;;;;;;5023651;28;20038;-78
2020/12/17 05:26:49;;;;;;;0.95;0.28;;;20.40;47.20;;;;;;5048870;28;20071;-78
2020/12/17 05:29:15;;;;;;;0.65;0.30;;;20.40;47.20;;;;;;5033918;28;20392;-76
2020/12/17 05:31:41;;;;;;;2.05;0.93;;;20.50;47.10;;;;;;5032931;28;20112;-77
2020/12/17 05:34:07;;;;;;;0.52;0.38;;;20.50;47.10;;;;;;5015341;28;20559;-75
2020/12/17 05:36:32;;;;;;;0.47;0.47;;;20.50;47.00;;;;;;5015853;28;20151;-75
2020/12/17 05:39:24;;;;;;;0.50;0.40;;;20.50;46.90;;;;;;5001488;28;20033;-75
2020/12/17 05:41:54;;;;;;;1.52;0.20;;;20.60;47.00;;;;;;5045091;28;20048;-75
2020/12/17 05:44:27;;;;;;;0.80;0.32;;;20.60;46.90;;;;;;5036153;28;20108;-74
2020/12/17 05:46:53;;;;;;;1.42;0.52;;;20.60;46.90;;;;;;5033965;28;20480;-75
2020/12/17 05:49:28;;;;;;;0.22;0.22;;;20.60;46.90;;;;;;5054891;28;20040;-75
2020/12/17 05:52:16;;;;;;;2.40;0.30;;;20.70;46.90;;;;;;5008598;28;20082;-74
2020/12/17 05:54:54;;;;;;;0.40;0.30;;;20.70;46.80;;;;;;5039293;28;20028;-75
2020/12/17 05:57:21;;;;;;;0.30;0.30;;;20.70;46.80;;;;;;5039359;28;20108;-78
2020/12/17 06:00:03;;;;;;;0.40;0.30;;;20.70;46.90;;;;;;5056995;28;20179;-78
2020/12/17 06:02:33;;;;;;;0.50;0.30;;;20.70;46.70;;;;;;5022701;28;20060;-78
2020/12/17 06:05:09;;;;;;;0.30;0.30;;;20.80;46.80;;;;;;5038221;28;20095;-77
2020/12/17 06:07:40;;;;;;;0.57;0.40;;;20.70;46.80;;;;;;5037227;28;20021;-78
2020/12/17 06:10:07;;;;;;;0.40;0.40;;;20.80;46.80;;;;;;5055901;28;20102;-77
2020/12/17 06:12:34;;;;;;;0.30;0.25;;;20.80;46.80;;;;;;5036914;28;20023;-78
2020/12/17 06:15:00;;;;;;;0.35;0.28;;;20.70;46.70;;;;;;5041371;28;20048;-77
2020/12/17 06:17:26;;;;;;;1.38;0.25;;;20.80;46.70;;;;;;5023473;28;20036;-77
2020/12/17 06:19:51;;;;;;;0.20;0.20;;;20.80;46.80;;;;;;5018290;28;20033;-77
2020/12/17 06:22:17;;;;;;;0.40;0.40;;;20.80;46.70;;;;;;5021171;28;20079;-79
2020/12/17 06:24:42;;;;;;;0.30;0.30;;;20.80;46.80;;;;;;5023792;28;20055;-79
2020/12/17 06:27:08;;;;;;;2.40;0.30;;;20.80;46.80;;;;;;5058766;28;20028;-80
2020/12/17 06:29:36;;;;;;;1.08;0.15;;;20.80;46.70;;;;;;5032442;28;20420;-76
2020/12/17 06:32:02;;;;;;;0.30;0.30;;;20.90;46.70;;;;;;5035242;28;20064;-77
2020/12/17 06:34:36;;;;;;;1.60;0.30;;;20.90;46.70;;;;;;5020115;28;20060;-77
2020/12/17 06:37:02;;;;;;;0.40;0.40;;;20.90;46.70;;;;;;5040571;28;20020;-77
2020/12/17 06:39:27;;;;;;;0.20;0.20;;;20.90;46.70;;;;;;5018461;28;20029;-77
2020/12/17 06:41:53;;;;;;;0.32;0.20;;;20.90;46.70;;;;;;5002458;28;20053;-77
2020/12/17 06:44:39;;;;;;;0.50;0.30;;;20.90;46.70;;;;;;5038406;28;20125;-77
2020/12/17 06:47:05;;;;;;;2.63;0.40;;;20.90;46.60;;;;;;5034600;28;20095;-77
2020/12/17 06:49:31;;;;;;;0.32;0.20;;;20.90;46.60;;;;;;5017988;28;20355;-77
2020/12/17 06:52:08;;;;;;;0.32;0.32;;;20.90;46.60;;;;;;5054813;28;20065;-76
2020/12/17 06:54:39;;;;;;;0.17;0.17;;;20.90;46.70;;;;;;5026663;28;20029;-77
2020/12/17 06:57:06;;;;;;;0.22;0.22;;;20.80;46.60;;;;;;5034888;28;20041;-76
2020/12/17 06:59:31;;;;;;;0.15;0.10;;;20.90;46.60;;;;;;5031001;28;20112;-76
2020/12/17 07:01:57;;;;;;;1.13;0.20;;;20.90;46.60;;;;;;5043253;28;20175;-78
2020/12/17 07:04:49;;;;;;;0.25;0.20;;;20.90;46.60;;;;;;5047095;28;20056;-78
2020/12/17 07:07:19;;;;;;;1.05;0.32;;;20.90;46.70;;;;;;5038749;28;20044;-76
2020/12/17 07:09:46;;;;;;;0.22;0.20;;;20.80;46.60;;;;;;5028952;28;20519;-77
2020/12/17 07:12:33;;;;;;;0.57;0.20;;;20.90;46.60;;;;;;5047773;28;20480;-76
2020/12/17 07:14:58;;;;;;;0.20;0.20;;;20.90;46.60;;;;;;5043857;28;20025;-76
2020/12/17 07:17:24;;;;;;;0.50;0.45;;;20.90;47.20;;;;;;5021475;28;20097;-77
2020/12/17 07:19:53;;;;;;;0.10;0.10;;;20.90;46.70;;;;;;5026772;28;20040;-78
2020/12/17 07:22:18;;;;;;;0.93;0.35;;;20.90;46.60;;;;;;5044705;28;20526;-77
2020/12/17 07:24:49;;;;;;;0.20;0.20;;;20.90;46.60;;;;;;5031962;28;20072;-78
2020/12/17 07:27:16;;;;;;;0.60;0.30;;;20.90;46.60;;;;;;5054401;28;20029;-78
2020/12/17 07:29:44;;;;;;;0.43;0.30;;;20.90;46.60;;;;;;5065146;28;20025;-78
2020/12/17 07:32:44;;;;;;;0.10;0.10;;;20.90;46.60;;;;;;5034695;28;20050;-77
2020/12/17 07:35:10;;;;;;;0.20;0.20;;;20.90;46.60;;;;;;5035589;28;20463;-77
2020/12/17 07:37:59;;;;;;;0.10;0.10;;;20.90;46.50;;;;;;5050501;28;20040;-77
2020/12/17 07:40:46;;;;;;;2.05;0.60;;;20.90;46.60;;;;;;4926935;29;20079;-78
2020/12/17 07:43:15;;;;;;;0.32;0.20;;;20.90;46.60;;;;;;4925295;29;20035;-78
2020/12/17 07:45:55;;;;;;;0.28;0.10;;;20.90;46.60;;;;;;4939676;29;20047;-79
2020/12/17 07:48:41;;;;;;;12.88;0.30;;;20.80;46.60;;;;;;4934337;29;20035;-78
2020/12/17 07:51:30;;;;;;;0.10;0.10;;;20.80;46.60;;;;;;4942732;29;20087;-78
2020/12/17 07:53:55;;;;;;;0.20;0.20;;;20.80;46.70;;;;;;4922000;29;20149;-76
2020/12/17 07:56:21;;;;;;;0.25;0.20;;;20.80;46.70;;;;;;4943177;29;20040;-75
2020/12/17 07:58:47;;;;;;;2.17;0.43;;;20.80;46.70;;;;;;4905611;29;20058;-76
2020/12/17 08:01:14;;;;;;;0.22;0.22;;;20.80;46.70;;;;;;4928275;29;20542;-76
2020/12/17 08:03:49;;;;;;;0.30;0.30;;;20.80;46.80;;;;;;4913273;29;20044;-75
2020/12/17 08:06:17;;;;;;;0.30;0.25;;;20.80;46.80;;;;;;4929392;29;20084;-74
2020/12/17 08:08:43;;;;;;;0.22;0.20;;;20.80;46.80;;;;;;4894674;29;20047;-75
2020/12/17 08:11:09;;;;;;;0.35;0.22;;;20.80;46.80;;;;;;4924648;28;20404;-76
2020/12/17 08:13:56;;;;;;;0.20;0.20;;;20.80;46.60;;;;;;4922942;29;20032;-73
2020/12/17 08:16:22;;;;;;;0.50;0.25;;;20.80;46.60;;;;;;4915855;28;20050;-75
2020/12/17 08:18:54;;;;;;;1.38;0.30;;;20.80;46.60;;;;;;5006587;28;20033;-73
2020/12/17 08:21:20;;;;;;;1.65;0.20;;;20.80;46.70;;;;;;5030179;28;20101;-76
2020/12/17 08:23:46;;;;;;;0.43;0.20;;;20.80;46.60;;;;;;5009890;28;20057;-76
2020/12/17 08:26:22;;;;;;;0.30;0.30;;;20.80;46.60;;;;;;5009389;28;20033;-74
2020/12/17 08:28:48;;;;;;;0.85;0.30;;;20.80;46.60;;;;;;4991423;28;20044;-75
2020/12/17 08:31:19;;;;;;;0.95;0.47;;;20.80;46.60;;;;;;5013582;28;20066;-75
2020/12/17 08:34:06;;;;;;;1.25;0.50;;;20.80;46.50;;;;;;5027607;28;20021;-75
2020/12/17 08:36:33;;;;;;;0.20;0.20;;;20.70;46.60;;;;;;5038161;28;20040;-75
2020/12/17 08:39:12;;;;;;;1.30;0.28;;;20.70;46.60;;;;;;5057681;28;20032;-77
2020/12/17 08:41:52;;;;;;;3.38;0.25;;;20.70;46.60;;;;;;5079423;28;20035;-75
2020/12/17 08:44:20;;;;;;;0.17;0.17;;;20.80;46.60;;;;;;5035587;28;20049;-76
2020/12/17 08:46:47;;;;;;;0.73;0.50;;;20.80;46.60;;;;;;5050961;28;20023;-76
2020/12/17 08:49:14;;;;;;;0.63;0.22;;;20.80;46.50;;;;;;5037249;28;20032;-76
2020/12/17 08:51:44;;;;;;;0.45;0.32;;;20.80;46.50;;;;;;5044382;28;20017;-76
2020/12/17 08:54:10;;;;;;;0.55;0.30;;;20.70;46.60;;;;;;5049185;28;20032;-75
2020/12/17 08:56:35;;;;;;;0.32;0.30;;;20.70;46.60;;;;;;5054202;28;20039;-75
2020/12/17 08:59:47;;;;;;;0.93;0.30;;;20.80;46.60;;;;;;5049251;28;20033;-75
2020/12/17 09:02:13;;;;;;;0.82;0.32;;;20.80;46.50;;;;;;5065377;28;20049;-75
2020/12/17 09:04:39;;;;;;;0.80;0.40;;;20.80;46.50;;;;;;5046178;28;20071;-73
2020/12/17 09:07:13;;;;;;;0.40;0.38;;;20.80;46.50;;;;;;5060276;28;20037;-72
2020/12/17 09:09:39;;;;;;;1.33;0.25;;;20.80;46.50;;;;;;5037154;28;20488;-72
2020/12/17 09:12:05;;;;;;;2.15;0.47;;;20.90;46.40;;;;;;5064138;28;20021;-72
2020/12/17 09:14:32;;;;;;;0.45;0.40;;;20.90;46.20;;;;;;5054739;28;20057;-73
2020/12/17 09:17:10;;;;;;;0.65;0.50;;;21.00;46.20;;;;;;5065827;28;20020;-76
2020/12/17 09:19:51;;;;;;;0.30;0.30;;;21.00;46.10;;;;;;5049045;28;20493;-77
2020/12/17 09:22:20;;;;;;;0.57;0.57;;;21.10;45.90;;;;;;5044996;28;20106;-79
2020/12/17 09:24:47;;;;;;;1.27;0.85;;;21.10;45.90;;;;;;5050405;28;20043;-78
2020/12/17 09:27:32;;;;;;;2.30;0.55;;;21.10;45.80;;;;;;5053943;28;20024;-78
2020/12/17 09:30:11;;;;;;;3.28;0.65;;;21.10;45.80;;;;;;5049829;28;20032;-78
2020/12/17 09:32:39;;;;;;;2.30;0.70;;;21.10;45.90;;;;;;5050639;28;20088;-78
2020/12/17 09:35:10;;;;;;;1.48;0.50;;;21.00;45.80;;;;;;5050284;28;20033;-78
2020/12/17 09:37:36;;;;;;;2.83;0.80;;;21.10;45.90;;;;;;5069595;28;20027;-78
2020/12/17 09:40:04;;;;;;;1.65;0.40;;;21.00;45.80;;;;;;5055377;28;20111;-79
2020/12/17 09:42:29;;;;;;;1.92;0.90;;;21.00;45.80;;;;;;5076610;28;20024;-78
2020/12/17 09:44:55;;;;;;;2.28;0.75;;;21.00;45.90;;;;;;5072144;28;20083;-78
2020/12/17 09:47:33;;;;;;;1.02;0.65;;;21.00;45.90;;;;;;5050744;28;20042;-78
2020/12/17 09:50:13;;;;;;;0.20;0.20;;;21.00;45.90;;;;;;5074580;28;20028;-78
2020/12/17 09:52:38;;;;;;;0.35;0.30;;;21.10;45.90;;;;;;5059376;28;20046;-77
2020/12/17 09:55:04;;;;;;;4.63;1.38;;;21.10;45.80;;;;;;5077153;28;20024;-78
2020/12/17 09:57:40;;;;;;;1.15;0.40;;;21.20;45.90;;;;;;5057540;28;20081;-78
2020/12/17 10:00:28;;;;;;;0.60;0.60;;;21.20;45.80;;;;;;5059287;28;20051;-78
2020/12/17 10:02:53;;;;;;;0.85;0.60;;;21.30;45.80;;;;;;5063068;28;20115;-78
2020/12/17 10:05:20;;;;;;;0.95;0.55;;;21.30;45.70;;;;;;5061783;28;20550;-78
2020/12/17 10:07:46;;;;;;;1.92;0.63;;;21.30;45.70;;;;;;5051301;28;20120;-77
2020/12/17 10:10:18;;;;;;;3.50;0.65;;;21.20;45.60;;;;;;5050964;28;20040;-77
2020/12/17 10:12:43;;;;;;;1.92;0.60;;;21.20;45.70;;;;;;5098092;28;20030;-74
2020/12/17 10:15:09;;;;;;;1.00;0.70;;;21.20;45.70;;;;;;5066524;28;20080;-75
2020/12/17 10:17:37;;;;;;;1.55;0.80;;;21.20;45.70;;;;;;5057437;28;20028;-75
2020/12/17 10:20:06;;;;;;;0.45;0.30;;;21.10;45.80;;;;;;5060416;28;20119;-73
2020/12/17 10:22:32;;;;;;;4.10;1.00;;;21.10;45.80;;;;;;5066535;28;20036;-75
2020/12/17 10:24:58;;;;;;;0.98;0.60;;;21.00;45.80;;;;;;5053209;28;20048;-74
2020/12/17 10:27:23;;;;;;;0.50;0.20;;;21.00;45.80;;;;;;5044015;28;20141;-76
2020/12/17 10:29:49;;;;;;;2.15;0.60;;;21.00;45.80;;;;;;5058088;28;20037;-75
2020/12/17 10:32:33;;;;;;;4.25;0.60;;;21.00;46.00;;;;;;5037314;28;20063;-75
2020/12/17 10:34:59;;;;;;;1.13;0.40;;;20.90;46.10;;;;;;5058871;28;20023;-74
2020/12/17 10:37:25;;;;;;;0.82;0.47;;;20.90;46.70;;;;;;5077397;28;20013;-74
2020/12/17 10:39:51;;;;;;;0.82;0.40;;;21.00;46.10;;;;;;5055066;28;20044;-76
2020/12/17 10:42:16;;;;;;;1.95;0.55;;;20.90;45.90;;;;;;5068380;28;20041;-75
2020/12/17 10:44:42;;;;;;;0.88;0.50;;;20.90;46.00;;;;;;5067199;28;20032;-75
2020/12/17 10:47:07;;;;;;;4.57;0.60;;;20.90;46.00;;;;;;5078846;28;20499;-75
2020/12/17 10:49:33;;;;;;;4.53;0.57;;;20.90;46.00;;;;;;5062040;28;20107;-75
2020/12/17 10:51:59;;;;;;;0.73;0.40;;;20.90;45.70;;;;;;5041228;28;20024;-75
2020/12/17 10:54:34;;;;;;;1.60;0.80;;;20.90;45.80;;;;;;5057962;28;20111;-75
2020/12/17 10:56:59;;;;;;;2.40;0.47;;;20.80;45.80;;;;;;5061542;28;20029;-75
2020/12/17 10:59:25;;;;;;;2.53;0.65;;;20.80;45.70;;;;;;5064183;28;20839;-75
2020/12/17 11:01:55;;;;;;;1.05;0.60;;;20.80;45.60;;;;;;5042752;28;20060;-75
2020/12/17 11:04:20;;;;;;;1.35;0.60;;;20.70;45.60;;;;;;5041076;28;20108;-74
2020/12/17 11:06:46;;;;;;;1.52;0.30;;;20.70;45.60;;;;;;5042277;28;20063;-73
2020/12/17 11:09:11;;;;;;;3.30;0.63;;;20.70;45.40;;;;;;5080218;28;20029;-74
2020/12/17 11:11:37;;;;;;;2.15;0.50;;;20.70;45.20;;;;;;5059138;28;20025;-74
2020/12/17 11:14:02;;;;;;;0.88;0.60;;;20.70;45.30;;;;;;5076708;28;20021;-73
2020/12/17 11:16:29;;;;;;;0.20;0.20;;;20.60;45.30;;;;;;5064193;28;20045;-74
2020/12/17 11:18:54;;;;;;;1.85;0.30;;;20.60;45.50;;;;;;5065808;28;20065;-74
2020/12/17 11:21:20;;;;;;;0.40;0.22;;;20.60;45.50;;;;;;5068057;28;20420;-75
2020/12/17 11:23:46;;;;;;;2.55;0.50;;;20.60;45.50;;;;;;5055131;28;20043;-74
2020/12/17 11:26:11;;;;;;;1.50;0.65;;;20.70;45.70;;;;;;5060799;28;20031;-74
2020/12/17 11:28:37;;;;;;;0.50;0.30;;;20.70;45.70;;;;;;5084696;28;20035;-75
2020/12/17 11:31:03;;;;;;;0.88;0.50;;;20.60;45.60;;;;;;5079738;28;20036;-73
2020/12/17 11:33:28;;;;;;;1.70;0.50;;;20.60;45.60;;;;;;5086662;28;20112;-75
2020/12/17 11:35:54;;;;;;;0.75;0.55;;;20.60;45.70;;;;;;5047586;28;20143;-76
2020/12/17 11:38:20;;;;;;;0.85;0.65;;;20.60;45.60;;;;;;5056416;28;20036;-76
2020/12/17 11:40:45;;;;;;;0.30;0.30;;;20.60;45.40;;;;;;5066103;28;20067;-73
2020/12/17 11:43:11;;;;;;;0.60;0.32;;;20.60;45.50;;;;;;5047290;28;20032;-73
2020/12/17 11:45:37;;;;;;;0.47;0.30;;;20.60;45.60;;;;;;5084723;28;20084;-74
2020/12/17 11:48:08;;;;;;;0.68;0.55;;;20.70;45.40;;;;;;5065812;28;20039;-74
2020/12/17 11:50:35;;;;;;;2.30;0.43;;;20.70;45.30;;;;;;5098927;28;20021;-75
2020/12/17 11:53:00;;;;;;;2.00;0.68;;;20.80;45.30;;;;;;5050885;28;20068;-75
2020/12/17 11:55:26;;;;;;;0.55;0.40;;;20.80;45.10;;;;;;5049096;28;20044;-75
2020/12/17 11:57:51;;;;;;;2.03;0.52;;;20.90;45.00;;;;;;5064617;28;20037;-75
2020/12/17 12:00:17;;;;;;;1.48;0.70;;;20.90;44.90;;;;;;5051178;28;20037;-75
2020/12/17 12:02:43;;;;;;;2.80;0.52;;;21.00;45.00;;;;;;5072109;28;20020;-75
2020/12/17 12:05:09;;;;;;;1.95;0.77;;;21.00;45.00;;;;;;5030253;28;20042;-74
2020/12/17 12:07:34;;;;;;;0.82;0.40;;;21.00;45.10;;;;;;5060143;28;20111;-74
2020/12/17 12:10:02;;;;;;;2.05;0.52;;;21.00;45.00;;;;;;5057272;28;20076;-74
2020/12/17 12:12:28;;;;;;;0.80;0.50;;;20.90;45.00;;;;;;5076605;28;20514;-74
2020/12/17 12:14:54;;;;;;;1.38;0.40;;;20.90;44.90;;;;;;5057313;28;20041;-75
2020/12/17 12:17:19;;;;;;;1.05;0.30;;;20.90;44.90;;;;;;5058399;28;20033;-75
2020/12/17 12:19:45;;;;;;;3.13;0.45;;;20.90;44.80;;;;;;5067047;28;20033;-74
2020/12/17 12:22:10;;;;;;;2.38;0.80;;;20.80;45.40;;;;;;5076548;28;20024;-74
2020/12/17 12:24:36;;;;;;;0.60;0.38;;;20.80;44.80;;;;;;5056896;28;20045;-74
2020/12/17 12:27:02;;;;;;;2.15;0.30;;;20.80;44.70;;;;;;5074385;28;20460;-74
2020/12/17 12:29:43;;;;;;;0.55;0.55;;;20.70;44.80;;;;;;5052109;28;20032;-75
2020/12/17 12:32:08;;;;;;;0.95;0.52;;;20.70;44.90;;;;;;5071159;28;20134;-74
2020/12/17 12:34:34;;;;;;;0.75;0.40;;;20.70;45.20;;;;;;5053080;28;20031;-75
2020/12/17 12:36:59;;;;;;;0.38;0.38;;;20.70;45.30;;;;;;5054297;28;20542;-74
2020/12/17 12:39:25;;;;;;;0.93;0.32;;;20.80;45.30;;;;;;5073499;28;20025;-75
2020/12/17 12:42:12;;;;;;;4.20;0.40;;;20.80;45.30;;;;;;5073512;28;20029;-75
2020/12/17 12:44:38;;;;;;;2.88;0.50;;;20.70;45.20;;;;;;5055969;28;20078;-74
2020/12/17 12:47:03;;;;;;;3.13;0.40;;;20.70;45.20;;;;;;5055343;28;20052;-75
2020/12/17 12:49:29;;;;;;;3.58;0.70;;;20.70;45.10;;;;;;5072899;28;20514;-74
2020/12/17 12:51:55;;;;;;;0.38;0.38;;;20.70;45.20;;;;;;5086614;28;20012;-76
2020/12/17 12:54:20;;;;;;;0.98;0.47;;;20.70;45.20;;;;;;5091815;28;20020;-75